createdAt,value
2022-08-26T00:01:56.576Z,55.00
2022-08-26T00:04:25.915Z,55.22
2022-08-26T00:06:55.626Z,55.71
2022-08-26T00:09:25.399Z,55.19
2022-08-26T00:11:54.653Z,54.67
2022-08-26T00:14:27.183Z,54.81
2022-08-26T00:16:57.995Z,54.60
2022-08-26T00:19:26.187Z,54.60
2022-08-26T00:21:54.546Z,55.08
2022-08-26T00:24:23.988Z,55.41
2022-08-26T00:26:51.892Z,55.60
2022-08-26T00:29:21.312Z,55.85
2022-08-26T00:31:49.661Z,55.31
2022-08-26T00:34:19.322Z,55.53
2022-08-26T00:36:51.794Z,55.38
2022-08-26T00:39:20.726Z,55.57
2022-08-26T00:41:50.182Z,56.49
2022-08-26T00:44:19.667Z,56.83
2022-08-26T00:47:01.424Z,55.89
2022-08-26T00:49:47.588Z,55.90
2022-08-26T00:52:20.023Z,56.15
2022-08-26T00:55:02.695Z,55.92
2022-08-26T00:57:32.328Z,54.80
2022-08-26T01:00:02.150Z,54.64
2022-08-26T01:02:31.370Z,54.79
2022-08-26T01:05:01.596Z,55.98
2022-08-26T01:07:32.622Z,56.00
2022-08-26T01:10:09.370Z,56.63
2022-08-26T01:12:43.031Z,56.09
2022-08-26T01:15:15.559Z,55.35
2022-08-26T01:17:43.913Z,55.43
2022-08-26T01:20:19.453Z,55.73
2022-08-26T01:23:03.264Z,55.66
2022-08-26T01:25:33.442Z,55.30
2022-08-26T01:28:06.636Z,55.16
2022-08-26T01:30:36.586Z,56.08
2022-08-26T01:33:11.151Z,56.28
2022-08-26T01:35:40.320Z,54.81
2022-08-26T01:38:11.594Z,56.06
2022-08-26T01:40:43.143Z,55.02
2022-08-26T01:43:17.651Z,55.59
2022-08-26T01:45:48.389Z,54.46
2022-08-26T01:48:21.185Z,55.41
2022-08-26T01:50:49.656Z,54.38
2022-08-26T01:53:19.988Z,54.13
2022-08-26T01:55:53.332Z,55.02
2022-08-26T01:58:43.576Z,54.75
2022-08-26T02:01:12.210Z,55.07
2022-08-26T02:03:51.569Z,54.10
2022-08-26T02:06:19.984Z,54.53
2022-08-26T02:08:50.901Z,53.64
2022-08-26T02:11:19.172Z,53.25
2022-08-26T02:13:55.745Z,54.99
2022-08-26T02:16:26.244Z,55.85
2022-08-26T02:18:55.667Z,56.25
2022-08-26T02:21:24.950Z,56.75
2022-08-26T02:23:56.241Z,56.92
2022-08-26T02:26:28.196Z,56.81
2022-08-26T02:29:16.486Z,57.23
2022-08-26T02:31:44.503Z,57.94
2022-08-26T02:34:15.793Z,57.46
2022-08-26T02:36:43.829Z,57.32
2022-08-26T02:39:13.633Z,58.15
2022-08-26T02:41:45.316Z,58.26
2022-08-26T02:44:13.353Z,58.46
2022-08-26T02:46:41.828Z,58.96
2022-08-26T02:49:17.103Z,59.23
2022-08-26T02:51:45.714Z,59.82
2022-08-26T02:54:14.062Z,60.15
2022-08-26T02:56:42.388Z,60.16
2022-08-26T02:59:12.750Z,59.97
2022-08-26T03:01:40.953Z,60.11
2022-08-26T03:04:12.276Z,60.67
2022-08-26T03:06:41.426Z,59.77
2022-08-26T03:09:10.237Z,60.13
2022-08-26T03:11:47.314Z,60.91
2022-08-26T03:14:15.351Z,60.71
2022-08-26T03:16:43.757Z,60.41
2022-08-26T03:19:18.240Z,60.61
2022-08-26T03:21:47.600Z,60.53
2022-08-26T03:24:15.768Z,60.52
2022-08-26T03:26:52.559Z,60.90
2022-08-26T03:29:40.236Z,60.66
2022-08-26T03:32:08.685Z,60.70
2022-08-26T03:34:37.344Z,60.27
2022-08-26T03:37:06.610Z,60.51
2022-08-26T03:39:34.992Z,60.54
2022-08-26T03:42:02.925Z,60.43
2022-08-26T03:44:31.672Z,59.96
2022-08-26T03:47:00.641Z,60.49
2022-08-26T03:49:31.473Z,61.31
2022-08-26T03:52:00.327Z,61.60
2022-08-26T03:54:28.146Z,61.69
2022-08-26T03:56:56.027Z,62.08
2022-08-26T03:59:25.089Z,61.83
2022-08-26T04:01:52.978Z,62.42
2022-08-26T04:04:22.758Z,62.36
2022-08-26T04:06:58.523Z,62.26
2022-08-26T04:09:27.781Z,62.64
2022-08-26T04:11:56.120Z,62.09
2022-08-26T04:14:27.081Z,62.46
2022-08-26T04:16:56.467Z,62.81
2022-08-26T04:19:25.854Z,62.80
2022-08-26T04:21:54.246Z,62.62
2022-08-26T04:24:24.708Z,63.03
2022-08-26T04:26:52.937Z,62.99
2022-08-26T04:29:24.408Z,62.13
2022-08-26T04:31:55.867Z,60.12
2022-08-26T04:34:28.324Z,58.89
2022-08-26T04:36:58.162Z,57.88
2022-08-26T04:39:27.574Z,56.82
2022-08-26T04:41:57.833Z,57.25
2022-08-26T04:44:28.749Z,56.69
2022-08-26T04:46:57.531Z,56.87
2022-08-26T04:49:27.596Z,57.23
2022-08-26T04:51:55.869Z,57.04
2022-08-26T04:54:25.122Z,56.56
2022-08-26T04:56:53.220Z,57.40
2022-08-26T04:59:21.335Z,57.37
2022-08-26T05:01:52.224Z,57.50
2022-08-26T05:04:21.297Z,58.02
2022-08-26T05:06:50.799Z,57.64
2022-08-26T05:09:20.265Z,57.27
2022-08-26T05:11:52.151Z,57.17
2022-08-26T05:14:23.379Z,57.16
2022-08-26T05:16:52.430Z,56.14
2022-08-26T05:19:21.067Z,56.76
2022-08-26T05:21:49.447Z,56.85
2022-08-26T05:24:18.266Z,56.69
2022-08-26T05:26:46.895Z,56.00
2022-08-26T05:29:14.695Z,55.41
2022-08-26T05:31:43.230Z,55.29
2022-08-26T05:34:11.113Z,55.61
2022-08-26T05:36:40.273Z,56.05
2022-08-26T05:39:10.648Z,55.23
2022-08-26T05:41:41.342Z,55.98
2022-08-26T05:44:14.013Z,55.68
2022-08-26T05:46:44.875Z,55.91
2022-08-26T05:49:14.712Z,55.52
2022-08-26T05:51:47.530Z,55.28
2022-08-26T05:54:21.341Z,54.89
2022-08-26T05:56:52.195Z,55.23
2022-08-26T05:59:23.898Z,54.66
2022-08-26T06:01:54.987Z,54.16
2022-08-26T06:04:27.006Z,53.52
2022-08-26T06:06:55.920Z,53.21
2022-08-26T06:09:24.319Z,54.17
2022-08-26T06:11:52.138Z,53.66
2022-08-26T06:14:21.643Z,53.11
2022-08-26T06:16:49.943Z,53.42
2022-08-26T06:19:18.076Z,52.60
2022-08-26T06:21:47.988Z,52.95
2022-08-26T06:24:41.336Z,52.51
2022-08-26T06:27:13.891Z,52.21
2022-08-26T06:29:43.373Z,51.56
2022-08-26T06:32:12.110Z,52.21
2022-08-26T06:34:40.236Z,51.81
2022-08-26T06:37:08.964Z,51.13
2022-08-26T06:39:41.038Z,50.70
2022-08-26T06:42:10.869Z,50.65
2022-08-26T06:44:39.041Z,50.17
2022-08-26T06:47:09.129Z,49.69
2022-08-26T06:49:37.444Z,49.57
2022-08-26T06:52:05.270Z,49.46
2022-08-26T06:54:33.112Z,49.16
2022-08-26T06:57:01.285Z,49.61
2022-08-26T06:59:31.303Z,48.57
2022-08-26T07:02:09.859Z,49.25
2022-08-26T07:04:42.085Z,49.20
2022-08-26T07:07:14.430Z,47.82
2022-08-26T07:09:42.281Z,46.24
2022-08-26T07:12:10.647Z,46.87
2022-08-26T07:14:39.308Z,47.32
2022-08-26T07:17:09.252Z,47.04
2022-08-26T07:19:40.042Z,46.00
2022-08-26T07:22:08.626Z,44.42
2022-08-26T07:24:43.108Z,44.86
2022-08-26T07:27:14.468Z,43.59
2022-08-26T07:29:43.742Z,42.10
2022-08-26T07:32:14.895Z,42.56
2022-08-26T07:34:43.624Z,43.73
2022-08-26T07:37:11.591Z,42.72
2022-08-26T07:39:41.779Z,41.42
2022-08-26T07:42:14.164Z,42.32
2022-08-26T07:44:43.268Z,42.35
2022-08-26T07:47:25.703Z,41.35
2022-08-26T07:49:56.288Z,41.54
2022-08-26T07:52:27.536Z,40.72
2022-08-26T07:54:58.380Z,40.64
2022-08-26T07:57:27.904Z,42.40
2022-08-26T07:59:56.665Z,40.64
2022-08-26T08:02:26.080Z,40.87
2022-08-26T08:04:55.391Z,40.63
2022-08-26T08:07:25.813Z,40.10
2022-08-26T08:10:11.316Z,39.44
2022-08-26T08:12:41.118Z,40.79
2022-08-26T08:15:12.314Z,41.06
2022-08-26T08:17:43.516Z,39.30
2022-08-26T08:20:14.121Z,39.13
2022-08-26T08:22:43.094Z,39.05
2022-08-26T08:25:12.213Z,38.73
2022-08-26T08:27:45.213Z,39.87
2022-08-26T08:30:14.915Z,39.91
2022-08-26T08:32:48.942Z,39.54
2022-08-26T08:35:18.823Z,40.46
2022-08-26T08:37:46.939Z,39.31
2022-08-26T08:40:18.812Z,38.48
2022-08-26T08:43:01.669Z,39.62
2022-08-26T08:45:37.254Z,38.43
2022-08-26T08:48:27.328Z,38.59
2022-08-26T08:51:04.424Z,39.83
2022-08-26T08:53:33.025Z,39.36
2022-08-26T08:56:23.710Z,39.50
2022-08-26T08:58:56.723Z,38.75
2022-08-26T09:01:43.236Z,37.90
2022-08-26T09:04:38.977Z,38.57
2022-08-26T09:07:12.102Z,38.97
2022-08-26T09:09:46.285Z,38.45
2022-08-26T09:12:20.759Z,37.46
2022-08-26T09:15:17.307Z,36.67
2022-08-26T09:18:24.930Z,36.72
2022-08-26T09:21:00.440Z,36.33
2022-08-26T09:23:30.346Z,37.29
2022-08-26T09:26:29.255Z,37.21
2022-08-26T09:28:59.290Z,36.65
2022-08-26T09:31:36.526Z,37.12
2022-08-26T09:34:12.008Z,37.96
2022-08-26T09:36:56.028Z,36.57
2022-08-26T09:39:33.602Z,36.16
2022-08-26T09:42:05.634Z,36.23
2022-08-26T09:44:35.691Z,37.03
2022-08-26T09:47:07.502Z,35.95
2022-08-26T09:49:41.108Z,36.30
2022-08-26T09:52:17.697Z,35.92
2022-08-26T09:54:58.259Z,36.50
2022-08-26T09:57:29.766Z,37.02
2022-08-26T09:59:57.612Z,35.55
2022-08-26T10:02:34.423Z,35.49
2022-08-26T10:05:09.523Z,35.90
2022-08-26T10:07:38.903Z,37.44
2022-08-26T10:10:22.823Z,36.04
2022-08-26T10:12:59.169Z,34.61
2022-08-26T10:15:28.368Z,36.25
2022-08-26T10:18:06.626Z,36.55
2022-08-26T10:20:42.154Z,35.96
2022-08-26T10:23:18.147Z,35.61
2022-08-26T10:25:48.110Z,35.40
2022-08-26T10:28:44.403Z,35.55
2022-08-26T10:31:28.147Z,34.24
2022-08-26T10:34:00.468Z,34.79
2022-08-26T10:40:07.681Z,36.85
2022-08-26T10:42:35.569Z,36.05
2022-08-26T10:45:15.067Z,35.28
2022-08-26T10:47:55.982Z,35.41
2022-08-26T10:50:30.948Z,34.72
2022-08-26T10:53:07.655Z,34.48
2022-08-26T10:55:43.267Z,34.88
2022-08-26T10:58:47.053Z,35.54
2022-08-26T11:01:43.323Z,34.54
2022-08-26T11:04:29.189Z,35.45
2022-08-26T11:07:35.189Z,35.97
2022-08-26T11:10:17.047Z,34.78
2022-08-26T11:12:49.223Z,35.26
2022-08-26T11:15:24.398Z,35.22
2022-08-26T11:17:52.569Z,35.19
2022-08-26T11:20:23.893Z,36.21
2022-08-26T11:22:54.849Z,35.44
2022-08-26T11:25:29.628Z,34.41
2022-08-26T11:28:00.559Z,35.42
2022-08-26T11:30:42.964Z,34.92
2022-08-26T11:33:51.046Z,35.57
2022-08-26T11:36:46.788Z,34.48
2022-08-26T11:39:29.543Z,34.14
2022-08-26T11:42:16.434Z,34.95
2022-08-26T11:44:49.868Z,35.42
2022-08-26T11:47:31.553Z,35.55
2022-08-26T11:50:10.119Z,35.69
2022-08-26T11:52:38.837Z,34.84
2022-08-26T11:55:11.825Z,35.78
2022-08-26T11:57:53.302Z,35.75
2022-08-26T12:00:24.507Z,35.01
2022-08-26T12:02:53.461Z,36.21
2022-08-26T12:05:29.592Z,36.03
2022-08-26T12:08:12.324Z,35.36
2022-08-26T12:10:40.481Z,36.00
2022-08-26T12:13:09.302Z,36.04
2022-08-26T12:15:37.110Z,35.69
2022-08-26T12:18:29.649Z,35.80
2022-08-26T12:21:12.404Z,35.85
2022-08-26T12:23:49.918Z,36.05
2022-08-26T12:26:25.776Z,35.30
2022-08-26T12:29:26.676Z,35.36
2022-08-26T12:32:14.474Z,35.16
2022-08-26T12:34:55.923Z,35.54
2022-08-26T12:37:44.557Z,35.25
2022-08-26T12:40:41.920Z,34.84
2022-08-26T12:43:16.459Z,35.13
2022-08-26T12:46:07.330Z,34.49
2022-08-26T12:48:55.484Z,34.48
2022-08-26T12:51:28.577Z,33.99
2022-08-26T12:54:07.623Z,34.44
2022-08-26T12:56:43.771Z,34.50
2022-08-26T12:59:27.411Z,34.15
2022-08-26T13:01:58.359Z,33.83
2022-08-26T13:04:47.415Z,33.76
2022-08-26T13:07:28.913Z,33.93
2022-08-26T13:10:07.644Z,33.97
2022-08-26T13:12:44.484Z,33.87
2022-08-26T13:15:28.019Z,34.26
2022-08-26T13:18:03.967Z,34.11
2022-08-26T13:20:35.087Z,34.09
2022-08-26T13:23:18.385Z,33.63
2022-08-26T13:26:18.984Z,33.49
2022-08-26T13:29:01.703Z,33.48
2022-08-26T13:31:36.357Z,33.84
2022-08-26T13:34:11.143Z,33.54
2022-08-26T13:36:48.350Z,33.00
2022-08-26T13:39:20.693Z,33.27
2022-08-26T13:41:52.610Z,33.57
2022-08-26T13:44:32.128Z,33.12
2022-08-26T13:47:02.798Z,33.22
2022-08-26T13:49:40.365Z,33.10
2022-08-26T13:52:25.526Z,33.16
2022-08-26T13:55:03.233Z,32.97
2022-08-26T13:57:35.794Z,33.21
2022-08-26T14:00:11.542Z,33.16
2022-08-26T14:02:42.559Z,33.67
2022-08-26T14:05:14.300Z,33.48
2022-08-26T14:07:47.997Z,33.30
2022-08-26T14:10:19.681Z,33.60
2022-08-26T14:12:55.375Z,33.25
2022-08-26T14:15:33.318Z,32.80
2022-08-26T14:18:07.758Z,33.58
2022-08-26T14:20:50.813Z,33.63
2022-08-26T14:23:22.093Z,33.82
2022-08-26T14:25:54.305Z,33.69
2022-08-26T14:31:03.496Z,33.77
2022-08-26T14:33:39.478Z,35.35
2022-08-26T14:36:28.706Z,34.37
2022-08-26T14:39:08.398Z,33.50
2022-08-26T14:41:54.305Z,34.82
2022-08-26T14:44:40.258Z,34.96
2022-08-26T14:47:10.864Z,34.80
2022-08-26T14:49:49.935Z,34.39
2022-08-26T14:52:19.870Z,34.88
2022-08-26T14:54:49.065Z,35.59
2022-08-26T14:57:27.792Z,35.03
2022-08-26T14:59:58.885Z,34.64
2022-08-26T15:02:33.266Z,34.96
2022-08-26T15:05:09.224Z,35.52
2022-08-26T15:07:47.736Z,35.31
2022-08-26T15:10:18.928Z,35.40
2022-08-26T15:12:51.102Z,34.67
2022-08-26T15:15:26.010Z,35.35
2022-08-26T15:17:55.380Z,34.96
2022-08-26T15:20:26.206Z,35.62
2022-08-26T15:22:54.054Z,35.77
2022-08-26T15:25:22.517Z,36.09
2022-08-26T15:27:50.514Z,36.29
2022-08-26T15:30:18.568Z,36.30
2022-08-26T15:32:47.634Z,37.17
2022-08-26T15:35:15.549Z,37.37
2022-08-26T15:37:43.401Z,37.05
2022-08-26T15:40:11.694Z,38.04
2022-08-26T15:42:39.626Z,36.74
2022-08-26T15:45:10.849Z,37.72
2022-08-26T15:48:01.299Z,36.95
2022-08-26T15:50:39.495Z,37.47
2022-08-26T15:53:13.174Z,37.14
2022-08-26T15:55:41.139Z,37.27
2022-08-26T15:58:12.328Z,38.45
2022-08-26T16:00:42.213Z,37.65
2022-08-26T16:03:10.211Z,38.76
2022-08-26T16:05:49.430Z,38.78
2022-08-26T16:08:17.833Z,38.73
2022-08-26T16:10:50.287Z,38.84
2022-08-26T16:13:20.479Z,38.44
2022-08-26T16:15:49.120Z,39.56
2022-08-26T16:18:17.343Z,39.97
2022-08-26T16:21:01.560Z,38.98
2022-08-26T16:23:38.970Z,39.95
2022-08-26T16:26:11.437Z,39.88
2022-08-26T16:28:39.557Z,39.60
2022-08-26T16:31:09.671Z,40.07
2022-08-26T16:33:38.063Z,40.37
2022-08-26T16:36:07.659Z,40.39
2022-08-26T16:38:37.762Z,41.16
2022-08-26T16:41:07.162Z,40.66
2022-08-26T16:43:35.623Z,40.15
2022-08-26T16:46:06.884Z,40.09
2022-08-26T16:48:35.472Z,40.54
2022-08-26T16:51:03.572Z,39.64
2022-08-26T16:53:31.674Z,40.46
2022-08-26T16:56:00.670Z,40.26
2022-08-26T16:58:29.016Z,40.22
2022-08-26T17:00:57.687Z,41.03
2022-08-26T17:03:26.368Z,40.70
2022-08-26T17:05:54.164Z,40.65
2022-08-26T17:08:28.383Z,41.09
2022-08-26T17:11:00.806Z,40.65
2022-08-26T17:13:35.762Z,40.40
2022-08-26T17:16:07.674Z,40.07
2022-08-26T17:18:37.163Z,40.85
2022-08-26T17:21:09.569Z,40.63
2022-08-26T17:23:38.841Z,40.65
2022-08-26T17:26:07.082Z,41.47
2022-08-26T17:28:35.008Z,40.78
2022-08-26T17:31:06.190Z,41.79
2022-08-26T17:33:34.922Z,41.93
2022-08-26T17:36:03.120Z,41.72
2022-08-26T17:38:30.987Z,41.33
2022-08-26T17:40:59.121Z,41.97
2022-08-26T17:43:27.023Z,41.33
2022-08-26T17:46:04.701Z,41.70
2022-08-26T17:48:39.927Z,42.07
2022-08-26T17:51:17.049Z,41.26
2022-08-26T17:53:46.027Z,41.82
2022-08-26T17:56:17.094Z,42.91
2022-08-26T17:58:51.377Z,42.32
2022-08-26T18:01:26.122Z,41.66
2022-08-26T18:04:00.078Z,41.90
2022-08-26T18:06:30.536Z,41.83
2022-08-26T18:08:59.502Z,42.20
2022-08-26T18:11:28.494Z,42.81
2022-08-26T18:13:56.310Z,43.15
2022-08-26T18:16:24.618Z,43.63
2022-08-26T18:18:53.576Z,43.43
2022-08-26T18:21:27.937Z,43.84
2022-08-26T18:23:56.480Z,44.16
2022-08-26T18:26:30.463Z,44.47
2022-08-26T18:28:59.151Z,44.30
2022-08-26T18:31:27.558Z,44.26
2022-08-26T18:33:55.500Z,44.58
2022-08-26T18:36:27.306Z,44.98
2022-08-26T18:38:55.787Z,45.78
2022-08-26T18:41:26.062Z,45.57
2022-08-26T18:43:54.259Z,45.83
2022-08-26T18:46:25.515Z,45.82
2022-08-26T18:48:59.276Z,46.31
2022-08-26T18:51:45.672Z,46.53
2022-08-26T18:54:15.606Z,46.00
2022-08-26T18:56:43.979Z,46.52
2022-08-26T18:59:14.110Z,47.07
2022-08-26T19:01:42.900Z,46.98
2022-08-26T19:04:14.760Z,46.99
2022-08-26T19:06:46.879Z,46.90
2022-08-26T19:09:17.967Z,46.72
2022-08-26T19:11:47.038Z,47.30
2022-08-26T19:14:18.958Z,47.37
2022-08-26T19:17:19.091Z,46.88
2022-08-26T19:19:50.798Z,47.64
2022-08-26T19:22:27.742Z,47.86
2022-08-26T19:24:55.660Z,47.88
2022-08-26T19:27:28.818Z,47.84
2022-08-26T19:29:57.984Z,47.43
2022-08-26T19:32:26.092Z,47.89
2022-08-26T19:34:54.080Z,47.66
2022-08-26T19:37:22.153Z,47.60
2022-08-26T19:39:51.228Z,47.86
2022-08-26T19:42:19.697Z,47.47
2022-08-26T19:45:05.880Z,47.47
2022-08-26T19:47:37.114Z,49.54
2022-08-26T19:50:08.116Z,49.27
2022-08-26T19:52:38.640Z,49.73
2022-08-26T19:55:09.443Z,51.09
2022-08-26T19:57:40.074Z,51.49
2022-08-26T20:00:15.816Z,50.90
2022-08-26T20:02:44.564Z,51.35
2022-08-26T20:05:13.965Z,51.70
2022-08-26T20:07:42.518Z,51.25
2022-08-26T20:10:13.691Z,50.78
2022-08-26T20:12:42.617Z,51.88
2022-08-26T20:15:13.250Z,52.09
2022-08-26T20:17:41.177Z,51.65
2022-08-26T20:20:33.219Z,52.61
2022-08-26T20:23:04.496Z,53.06
2022-08-26T20:25:33.938Z,53.69
2022-08-26T20:28:02.129Z,54.62
2022-08-26T20:30:30.410Z,55.47
2022-08-26T20:32:58.702Z,54.79
2022-08-26T20:35:26.781Z,55.80
2022-08-26T20:37:54.738Z,55.48
2022-08-26T20:40:23.833Z,55.87
2022-08-26T20:42:51.767Z,55.85
2022-08-26T20:45:19.912Z,56.27
2022-08-26T20:47:47.871Z,55.98
2022-08-26T20:50:15.881Z,55.75
2022-08-26T20:52:43.837Z,55.82
2022-08-26T20:55:14.663Z,55.17
2022-08-26T20:57:44.477Z,56.07
2022-08-26T21:00:16.051Z,55.00
2022-08-26T21:02:46.541Z,55.57
2022-08-26T21:05:17.219Z,54.94
2022-08-26T21:07:45.979Z,55.20
2022-08-26T21:10:15.706Z,55.57
2022-08-26T21:12:45.168Z,55.24
2022-08-26T21:15:12.939Z,55.28
2022-08-26T21:17:41.685Z,55.70
2022-08-26T21:20:10.326Z,55.88
2022-08-26T21:22:38.536Z,55.68
2022-08-26T21:25:09.060Z,55.96
2022-08-26T21:27:40.485Z,56.00
2022-08-26T21:30:09.372Z,56.19
2022-08-26T21:32:37.343Z,56.30
2022-08-26T21:35:05.584Z,56.13
2022-08-26T21:37:33.780Z,55.99
2022-08-26T21:40:02.231Z,55.59
2022-08-26T21:42:34.243Z,55.42
2022-08-26T21:45:03.787Z,55.71
2022-08-26T21:47:32.775Z,55.83
2022-08-26T21:50:03.781Z,56.40
2022-08-26T21:52:35.427Z,56.03
2022-08-26T21:55:08.794Z,56.23
2022-08-26T21:57:37.028Z,56.21
2022-08-26T22:00:09.825Z,56.50
2022-08-26T22:02:38.545Z,56.41
2022-08-26T22:05:07.290Z,56.66
2022-08-26T22:07:35.294Z,56.52
2022-08-26T22:10:04.996Z,56.21
2022-08-26T22:12:33.203Z,56.31
2022-08-26T22:15:02.417Z,56.22
2022-08-26T22:17:31.052Z,56.71
2022-08-26T22:19:58.858Z,56.99
2022-08-26T22:22:28.730Z,56.65
2022-08-26T22:24:56.573Z,56.44
2022-08-26T22:27:24.446Z,55.49
2022-08-26T22:29:52.837Z,56.36
2022-08-26T22:32:20.631Z,56.05
2022-08-26T22:34:48.689Z,56.78
2022-08-26T22:37:16.512Z,56.60
2022-08-26T22:39:44.777Z,56.80
2022-08-26T22:42:12.832Z,56.42
2022-08-26T22:44:41.328Z,56.50
2022-08-26T22:47:17.335Z,56.26
2022-08-26T22:50:06.795Z,56.90
2022-08-26T22:52:36.683Z,57.04
2022-08-26T22:55:05.173Z,57.06
2022-08-26T22:57:33.249Z,58.23
2022-08-26T23:00:01.008Z,57.79
2022-08-26T23:02:28.982Z,57.11
2022-08-26T23:04:56.905Z,57.48
2022-08-26T23:07:24.667Z,57.94
2022-08-26T23:09:52.392Z,58.11
2022-08-26T23:12:20.247Z,58.51
2022-08-26T23:14:49.044Z,58.23
2022-08-26T23:17:16.865Z,57.58
2022-08-26T23:19:44.726Z,58.17
2022-08-26T23:22:12.599Z,57.85
2022-08-26T23:24:40.667Z,57.39
2022-08-26T23:27:08.517Z,57.96
2022-08-26T23:29:36.844Z,58.92
2022-08-26T23:32:05.012Z,58.44
2022-08-26T23:34:51.446Z,57.86
2022-08-26T23:37:19.770Z,57.63
2022-08-26T23:39:48.972Z,57.28
2022-08-26T23:42:16.798Z,57.44
2022-08-26T23:44:44.687Z,56.77
2022-08-26T23:47:13.587Z,57.68
2022-08-26T23:49:41.983Z,58.01
2022-08-26T23:52:28.984Z,59.15
2022-08-26T23:54:56.922Z,59.26
2022-08-26T23:57:25.713Z,58.96
2022-08-26T23:59:53.680Z,59.38
